sensor_id;sensor_type;location;lat;lon;timestamp;P1;durP1;ratioP1;P2;durP2;ratioP2
27003;SDS011;14546;47.590;19.022;2024-02-21T00:01:37;5.60;;;4.57;;
27003;SDS011;14546;47.590;19.022;2024-02-21T00:04:03;5.90;;;4.43;;
27003;SDS011;14546;47.590;19.022;2024-02-21T00:06:29;5.93;;;5.03;;
27003;SDS011;14546;47.590;19.022;2024-02-21T00:08:55;7.10;;;4.18;;
27003;SDS011;14546;47.590;19.022;2024-02-21T00:11:21;6.32;;;4.40;;
27003;SDS011;14546;47.590;19.022;2024-02-21T00:13:47;10.00;;;4.35;;
27003;SDS011;14546;47.590;19.022;2024-02-21T00:16:13;4.97;;;3.45;;
27003;SDS011;14546;47.590;19.022;2024-02-21T00:18:41;5.35;;;3.30;;
27003;SDS011;14546;47.590;19.022;2024-02-21T00:21:07;6.28;;;3.88;;
27003;SDS011;14546;47.590;19.022;2024-02-21T00:23:33;5.35;;;3.85;;
27003;SDS011;14546;47.590;19.022;2024-02-21T00:25:59;7.07;;;3.90;;
27003;SDS011;14546;47.590;19.022;2024-02-21T00:28:25;7.95;;;3.50;;
27003;SDS011;14546;47.590;19.022;2024-02-21T00:30:51;6.30;;;3.47;;
27003;SDS011;14546;47.590;19.022;2024-02-21T00:33:18;6.03;;;3.70;;
27003;SDS011;14546;47.590;19.022;2024-02-21T00:35:44;5.28;;;3.00;;
27003;SDS011;14546;47.590;19.022;2024-02-21T00:38:10;9.77;;;3.38;;
27003;SDS011;14546;47.590;19.022;2024-02-21T00:40:36;3.83;;;2.78;;
27003;SDS011;14546;47.590;19.022;2024-02-21T00:43:02;7.43;;;2.80;;
27003;SDS011;14546;47.590;19.022;2024-02-21T00:45:28;4.10;;;2.40;;
27003;SDS011;14546;47.590;19.022;2024-02-21T00:47:54;6.13;;;3.00;;
27003;SDS011;14546;47.590;19.022;2024-02-21T00:50:20;7.20;;;2.08;;
27003;SDS011;14546;47.590;19.022;2024-02-21T00:52:46;6.80;;;3.00;;
27003;SDS011;14546;47.590;19.022;2024-02-21T00:55:13;4.30;;;2.50;;
27003;SDS011;14546;47.590;19.022;2024-02-21T00:57:39;4.70;;;2.40;;
27003;SDS011;14546;47.590;19.022;2024-02-21T01:00:05;4.95;;;2.47;;
27003;SDS011;14546;47.590;19.022;2024-02-21T01:02:33;4.07;;;2.65;;
27003;SDS011;14546;47.590;19.022;2024-02-21T01:04:59;8.25;;;3.08;;
27003;SDS011;14546;47.590;19.022;2024-02-21T01:07:26;5.75;;;2.67;;
27003;SDS011;14546;47.590;19.022;2024-02-21T01:09:52;7.68;;;2.47;;
27003;SDS011;14546;47.590;19.022;2024-02-21T01:12:18;5.70;;;2.22;;
27003;SDS011;14546;47.590;19.022;2024-02-21T01:14:44;6.70;;;2.40;;
27003;SDS011;14546;47.590;19.022;2024-02-21T01:17:14;4.95;;;2.42;;
27003;SDS011;14546;47.590;19.022;2024-02-21T01:19:40;4.63;;;2.30;;
27003;SDS011;14546;47.590;19.022;2024-02-21T01:22:06;4.03;;;2.28;;
27003;SDS011;14546;47.590;19.022;2024-02-21T01:24:32;5.10;;;2.40;;
27003;SDS011;14546;47.590;19.022;2024-02-21T01:26:58;4.28;;;2.60;;
27003;SDS011;14546;47.590;19.022;2024-02-21T01:29:24;4.95;;;2.33;;
27003;SDS011;14546;47.590;19.022;2024-02-21T01:31:50;8.00;;;2.58;;
27003;SDS011;14546;47.590;19.022;2024-02-21T01:34:16;7.95;;;2.70;;
27003;SDS011;14546;47.590;19.022;2024-02-21T01:36:42;5.70;;;2.42;;
27003;SDS011;14546;47.590;19.022;2024-02-21T01:39:08;4.40;;;2.33;;
27003;SDS011;14546;47.590;19.022;2024-02-21T01:41:34;5.40;;;2.67;;
27003;SDS011;14546;47.590;19.022;2024-02-21T01:44:00;6.97;;;2.60;;
27003;SDS011;14546;47.590;19.022;2024-02-21T01:46:26;7.75;;;3.10;;
27003;SDS011;14546;47.590;19.022;2024-02-21T01:48:56;6.32;;;2.92;;
27003;SDS011;14546;47.590;19.022;2024-02-21T01:51:26;6.53;;;2.67;;
27003;SDS011;14546;47.590;19.022;2024-02-21T01:53:52;6.05;;;2.72;;
27003;SDS011;14546;47.590;19.022;2024-02-21T01:56:19;7.28;;;2.90;;
27003;SDS011;14546;47.590;19.022;2024-02-21T01:58:45;7.07;;;3.03;;
27003;SDS011;14546;47.590;19.022;2024-02-21T02:01:11;5.07;;;3.00;;
27003;SDS011;14546;47.590;19.022;2024-02-21T02:03:37;8.40;;;2.92;;
27003;SDS011;14546;47.590;19.022;2024-02-21T02:06:04;5.53;;;2.88;;
27003;SDS011;14546;47.590;19.022;2024-02-21T02:08:31;6.93;;;3.30;;
27003;SDS011;14546;47.590;19.022;2024-02-21T02:10:57;6.38;;;2.83;;
27003;SDS011;14546;47.590;19.022;2024-02-21T02:13:23;6.55;;;2.88;;
27003;SDS011;14546;47.590;19.022;2024-02-21T02:15:49;6.10;;;2.97;;
27003;SDS011;14546;47.590;19.022;2024-02-21T02:18:16;8.30;;;3.05;;
27003;SDS011;14546;47.590;19.022;2024-02-21T02:20:43;7.65;;;3.05;;
27003;SDS011;14546;47.590;19.022;2024-02-21T02:25:59;5.47;;;2.85;;
27003;SDS011;14546;47.590;19.022;2024-02-21T02:28:26;7.78;;;3.08;;
27003;SDS011;14546;47.590;19.022;2024-02-21T02:30:52;7.82;;;2.90;;
27003;SDS011;14546;47.590;19.022;2024-02-21T02:33:18;6.97;;;2.90;;
27003;SDS011;14546;47.590;19.022;2024-02-21T02:35:44;4.90;;;2.85;;
27003;SDS011;14546;47.590;19.022;2024-02-21T02:38:10;5.60;;;2.70;;
27003;SDS011;14546;47.590;19.022;2024-02-21T02:40:37;7.15;;;3.33;;
27003;SDS011;14546;47.590;19.022;2024-02-21T02:43:05;6.47;;;3.70;;
27003;SDS011;14546;47.590;19.022;2024-02-21T02:45:31;6.13;;;3.15;;
27003;SDS011;14546;47.590;19.022;2024-02-21T02:47:57;7.45;;;4.18;;
27003;SDS011;14546;47.590;19.022;2024-02-21T02:50:23;9.43;;;3.58;;
27003;SDS011;14546;47.590;19.022;2024-02-21T02:52:49;9.23;;;3.20;;
27003;SDS011;14546;47.590;19.022;2024-02-21T02:55:15;11.00;;;3.60;;
27003;SDS011;14546;47.590;19.022;2024-02-21T02:57:41;10.98;;;3.53;;
27003;SDS011;14546;47.590;19.022;2024-02-21T03:00:07;7.07;;;3.50;;
27003;SDS011;14546;47.590;19.022;2024-02-21T03:02:34;9.35;;;4.15;;
27003;SDS011;14546;47.590;19.022;2024-02-21T03:05:00;9.32;;;3.53;;
27003;SDS011;14546;47.590;19.022;2024-02-21T03:07:26;9.05;;;4.05;;
27003;SDS011;14546;47.590;19.022;2024-02-21T03:09:51;8.50;;;4.05;;
27003;SDS011;14546;47.590;19.022;2024-02-21T03:12:18;6.65;;;3.60;;
27003;SDS011;14546;47.590;19.022;2024-02-21T03:14:52;6.95;;;3.63;;
27003;SDS011;14546;47.590;19.022;2024-02-21T03:17:18;6.15;;;3.72;;
27003;SDS011;14546;47.590;19.022;2024-02-21T03:19:44;9.75;;;4.07;;
27003;SDS011;14546;47.590;19.022;2024-02-21T03:22:10;7.40;;;3.60;;
27003;SDS011;14546;47.590;19.022;2024-02-21T03:24:36;10.70;;;3.80;;
27003;SDS011;14546;47.590;19.022;2024-02-21T03:27:02;10.80;;;3.92;;
27003;SDS011;14546;47.590;19.022;2024-02-21T03:29:28;5.35;;;3.50;;
27003;SDS011;14546;47.590;19.022;2024-02-21T03:31:54;12.30;;;4.10;;
27003;SDS011;14546;47.590;19.022;2024-02-21T03:34:20;7.82;;;4.32;;
27003;SDS011;14546;47.590;19.022;2024-02-21T03:36:46;10.00;;;3.60;;
27003;SDS011;14546;47.590;19.022;2024-02-21T03:39:12;7.88;;;3.83;;
27003;SDS011;14546;47.590;19.022;2024-02-21T03:41:38;11.50;;;5.05;;
27003;SDS011;14546;47.590;19.022;2024-02-21T03:44:04;8.38;;;3.95;;
27003;SDS011;14546;47.590;19.022;2024-02-21T03:46:30;8.50;;;3.85;;
27003;SDS011;14546;47.590;19.022;2024-02-21T03:48:56;6.43;;;3.65;;
27003;SDS011;14546;47.590;19.022;2024-02-21T03:51:22;9.52;;;4.20;;
27003;SDS011;14546;47.590;19.022;2024-02-21T03:53:48;12.63;;;4.78;;
27003;SDS011;14546;47.590;19.022;2024-02-21T03:56:13;13.95;;;4.35;;
27003;SDS011;14546;47.590;19.022;2024-02-21T03:58:39;8.88;;;4.32;;
27003;SDS011;14546;47.590;19.022;2024-02-21T04:01:05;9.35;;;4.63;;
27003;SDS011;14546;47.590;19.022;2024-02-21T04:03:30;10.32;;;5.32;;
27003;SDS011;14546;47.590;19.022;2024-02-21T04:05:56;10.55;;;4.82;;
27003;SDS011;14546;47.590;19.022;2024-02-21T04:08:22;15.07;;;5.40;;
27003;SDS011;14546;47.590;19.022;2024-02-21T04:10:48;12.25;;;5.18;;
27003;SDS011;14546;47.590;19.022;2024-02-21T04:13:14;11.88;;;5.20;;
27003;SDS011;14546;47.590;19.022;2024-02-21T04:15:39;16.20;;;4.88;;
27003;SDS011;14546;47.590;19.022;2024-02-21T04:18:05;12.63;;;4.95;;
27003;SDS011;14546;47.590;19.022;2024-02-21T04:20:31;12.25;;;5.18;;
27003;SDS011;14546;47.590;19.022;2024-02-21T04:22:57;16.98;;;6.63;;
27003;SDS011;14546;47.590;19.022;2024-02-21T04:25:23;14.20;;;6.05;;
27003;SDS011;14546;47.590;19.022;2024-02-21T04:27:49;13.40;;;5.75;;
27003;SDS011;14546;47.590;19.022;2024-02-21T04:30:15;12.90;;;5.45;;
27003;SDS011;14546;47.590;19.022;2024-02-21T04:32:41;12.13;;;5.57;;
27003;SDS011;14546;47.590;19.022;2024-02-21T04:35:07;15.32;;;6.05;;
27003;SDS011;14546;47.590;19.022;2024-02-21T04:37:33;11.00;;;6.30;;
27003;SDS011;14546;47.590;19.022;2024-02-21T04:39:59;12.02;;;5.60;;
27003;SDS011;14546;47.590;19.022;2024-02-21T04:42:24;16.02;;;6.35;;
27003;SDS011;14546;47.590;19.022;2024-02-21T04:44:50;15.02;;;6.13;;
27003;SDS011;14546;47.590;19.022;2024-02-21T04:47:16;11.18;;;6.63;;
27003;SDS011;14546;47.590;19.022;2024-02-21T04:49:42;14.63;;;6.95;;
27003;SDS011;14546;47.590;19.022;2024-02-21T04:52:07;18.80;;;6.78;;
27003;SDS011;14546;47.590;19.022;2024-02-21T04:54:33;13.77;;;7.05;;
27003;SDS011;14546;47.590;19.022;2024-02-21T04:57:00;12.88;;;7.03;;
27003;SDS011;14546;47.590;19.022;2024-02-21T04:59:26;9.70;;;6.25;;
27003;SDS011;14546;47.590;19.022;2024-02-21T05:01:52;12.52;;;7.05;;
27003;SDS011;14546;47.590;19.022;2024-02-21T05:04:17;13.73;;;7.32;;
27003;SDS011;14546;47.590;19.022;2024-02-21T05:06:43;14.98;;;7.57;;
27003;SDS011;14546;47.590;19.022;2024-02-21T05:09:09;14.35;;;7.68;;
27003;SDS011;14546;47.590;19.022;2024-02-21T05:11:35;15.98;;;7.65;;
27003;SDS011;14546;47.590;19.022;2024-02-21T05:14:01;15.48;;;7.43;;
27003;SDS011;14546;47.590;19.022;2024-02-21T05:16:28;12.80;;;7.25;;
27003;SDS011;14546;47.590;19.022;2024-02-21T05:18:54;12.35;;;7.10;;
27003;SDS011;14546;47.590;19.022;2024-02-21T05:21:22;16.90;;;7.70;;
27003;SDS011;14546;47.590;19.022;2024-02-21T05:23:48;17.85;;;8.00;;
27003;SDS011;14546;47.590;19.022;2024-02-21T05:26:23;15.98;;;8.10;;
27003;SDS011;14546;47.590;19.022;2024-02-21T05:28:50;19.45;;;8.40;;
27003;SDS011;14546;47.590;19.022;2024-02-21T05:31:17;16.13;;;7.80;;
27003;SDS011;14546;47.590;19.022;2024-02-21T05:33:43;15.07;;;8.30;;
27003;SDS011;14546;47.590;19.022;2024-02-21T05:36:10;18.98;;;8.10;;
27003;SDS011;14546;47.590;19.022;2024-02-21T05:38:36;10.93;;;7.78;;
27003;SDS011;14546;47.590;19.022;2024-02-21T05:41:02;14.80;;;7.50;;
27003;SDS011;14546;47.590;19.022;2024-02-21T05:43:27;15.00;;;8.00;;
27003;SDS011;14546;47.590;19.022;2024-02-21T05:45:53;17.25;;;8.65;;
27003;SDS011;14546;47.590;19.022;2024-02-21T05:48:19;14.10;;;7.88;;
27003;SDS011;14546;47.590;19.022;2024-02-21T05:50:45;15.90;;;8.43;;
27003;SDS011;14546;47.590;19.022;2024-02-21T05:53:11;14.90;;;7.80;;
27003;SDS011;14546;47.590;19.022;2024-02-21T05:55:38;16.63;;;8.70;;
27003;SDS011;14546;47.590;19.022;2024-02-21T05:58:04;18.25;;;8.63;;
27003;SDS011;14546;47.590;19.022;2024-02-21T06:00:31;21.27;;;9.13;;
27003;SDS011;14546;47.590;19.022;2024-02-21T06:02:57;17.60;;;9.57;;
27003;SDS011;14546;47.590;19.022;2024-02-21T06:05:23;14.45;;;8.65;;
27003;SDS011;14546;47.590;19.022;2024-02-21T06:07:49;19.38;;;8.50;;
27003;SDS011;14546;47.590;19.022;2024-02-21T06:10:14;20.50;;;9.00;;
27003;SDS011;14546;47.590;19.022;2024-02-21T06:12:40;16.35;;;8.45;;
27003;SDS011;14546;47.590;19.022;2024-02-21T06:15:06;15.40;;;8.00;;
27003;SDS011;14546;47.590;19.022;2024-02-21T06:17:32;19.58;;;8.45;;
27003;SDS011;14546;47.590;19.022;2024-02-21T06:19:57;19.30;;;9.25;;
27003;SDS011;14546;47.590;19.022;2024-02-21T06:22:23;17.42;;;10.05;;
27003;SDS011;14546;47.590;19.022;2024-02-21T06:24:48;16.88;;;8.55;;
27003;SDS011;14546;47.590;19.022;2024-02-21T06:27:15;13.57;;;8.07;;
27003;SDS011;14546;47.590;19.022;2024-02-21T06:29:41;16.27;;;7.78;;
27003;SDS011;14546;47.590;19.022;2024-02-21T06:32:07;12.18;;;7.45;;
27003;SDS011;14546;47.590;19.022;2024-02-21T06:34:33;15.18;;;7.25;;
27003;SDS011;14546;47.590;19.022;2024-02-21T06:37:00;15.82;;;7.50;;
27003;SDS011;14546;47.590;19.022;2024-02-21T06:39:25;22.65;;;9.57;;
27003;SDS011;14546;47.590;19.022;2024-02-21T06:41:51;25.58;;;12.27;;
27003;SDS011;14546;47.590;19.022;2024-02-21T06:44:18;19.48;;;9.25;;
27003;SDS011;14546;47.590;19.022;2024-02-21T06:46:44;14.50;;;7.38;;
27003;SDS011;14546;47.590;19.022;2024-02-21T06:49:10;19.17;;;7.32;;
27003;SDS011;14546;47.590;19.022;2024-02-21T06:51:44;16.83;;;7.18;;
27003;SDS011;14546;47.590;19.022;2024-02-21T06:54:12;22.00;;;7.90;;
27003;SDS011;14546;47.590;19.022;2024-02-21T06:56:39;13.63;;;6.05;;
27003;SDS011;14546;47.590;19.022;2024-02-21T06:59:05;18.95;;;6.80;;
27003;SDS011;14546;47.590;19.022;2024-02-21T07:01:31;10.45;;;6.28;;
27003;SDS011;14546;47.590;19.022;2024-02-21T07:03:57;16.98;;;7.00;;
27003;SDS011;14546;47.590;19.022;2024-02-21T07:06:23;11.73;;;7.28;;
27003;SDS011;14546;47.590;19.022;2024-02-21T07:08:48;14.88;;;6.68;;
27003;SDS011;14546;47.590;19.022;2024-02-21T07:11:14;12.65;;;6.13;;
27003;SDS011;14546;47.590;19.022;2024-02-21T07:13:40;10.82;;;5.10;;
27003;SDS011;14546;47.590;19.022;2024-02-21T07:16:06;11.60;;;5.70;;
27003;SDS011;14546;47.590;19.022;2024-02-21T07:18:33;13.90;;;5.60;;
27003;SDS011;14546;47.590;19.022;2024-02-21T07:20:58;13.75;;;5.78;;
27003;SDS011;14546;47.590;19.022;2024-02-21T07:23:24;11.70;;;5.68;;
27003;SDS011;14546;47.590;19.022;2024-02-21T07:25:50;14.07;;;6.10;;
27003;SDS011;14546;47.590;19.022;2024-02-21T07:28:15;14.90;;;5.28;;
27003;SDS011;14546;47.590;19.022;2024-02-21T07:30:42;11.80;;;5.50;;
27003;SDS011;14546;47.590;19.022;2024-02-21T07:33:08;11.88;;;5.70;;
27003;SDS011;14546;47.590;19.022;2024-02-21T07:35:34;17.05;;;5.53;;
27003;SDS011;14546;47.590;19.022;2024-02-21T07:38:02;10.65;;;5.82;;
27003;SDS011;14546;47.590;19.022;2024-02-21T07:40:29;12.68;;;6.20;;
27003;SDS011;14546;47.590;19.022;2024-02-21T07:42:54;12.35;;;5.35;;
27003;SDS011;14546;47.590;19.022;2024-02-21T07:45:20;11.30;;;4.82;;
27003;SDS011;14546;47.590;19.022;2024-02-21T07:47:48;8.13;;;4.40;;
27003;SDS011;14546;47.590;19.022;2024-02-21T07:50:14;8.88;;;4.85;;
27003;SDS011;14546;47.590;19.022;2024-02-21T07:52:40;10.32;;;4.53;;
27003;SDS011;14546;47.590;19.022;2024-02-21T07:55:05;9.35;;;4.65;;
27003;SDS011;14546;47.590;19.022;2024-02-21T07:57:31;11.77;;;4.82;;
27003;SDS011;14546;47.590;19.022;2024-02-21T07:59:57;10.38;;;4.15;;
27003;SDS011;14546;47.590;19.022;2024-02-21T08:02:22;8.32;;;4.40;;
27003;SDS011;14546;47.590;19.022;2024-02-21T08:04:48;18.70;;;3.80;;
27003;SDS011;14546;47.590;19.022;2024-02-21T08:07:14;9.48;;;3.85;;
27003;SDS011;14546;47.590;19.022;2024-02-21T08:09:39;10.45;;;3.70;;
27003;SDS011;14546;47.590;19.022;2024-02-21T08:12:05;10.27;;;4.10;;
27003;SDS011;14546;47.590;19.022;2024-02-21T08:14:31;15.52;;;4.53;;
27003;SDS011;14546;47.590;19.022;2024-02-21T08:16:57;10.40;;;4.20;;
27003;SDS011;14546;47.590;19.022;2024-02-21T08:19:22;13.10;;;3.97;;
27003;SDS011;14546;47.590;19.022;2024-02-21T08:21:48;10.43;;;3.80;;
27003;SDS011;14546;47.590;19.022;2024-02-21T08:24:14;7.53;;;3.80;;
27003;SDS011;14546;47.590;19.022;2024-02-21T08:26:43;13.55;;;4.38;;
27003;SDS011;14546;47.590;19.022;2024-02-21T08:29:10;12.10;;;4.10;;
27003;SDS011;14546;47.590;19.022;2024-02-21T08:31:36;14.18;;;4.45;;
27003;SDS011;14546;47.590;19.022;2024-02-21T08:34:02;12.45;;;4.20;;
27003;SDS011;14546;47.590;19.022;2024-02-21T08:36:29;11.02;;;4.18;;
27003;SDS011;14546;47.590;19.022;2024-02-21T08:38:59;13.55;;;4.10;;
27003;SDS011;14546;47.590;19.022;2024-02-21T08:41:26;10.48;;;4.13;;
27003;SDS011;14546;47.590;19.022;2024-02-21T08:43:52;14.38;;;3.97;;
27003;SDS011;14546;47.590;19.022;2024-02-21T08:46:19;14.43;;;4.68;;
27003;SDS011;14546;47.590;19.022;2024-02-21T08:48:45;14.63;;;4.93;;
27003;SDS011;14546;47.590;19.022;2024-02-21T08:51:12;11.05;;;3.65;;
27003;SDS011;14546;47.590;19.022;2024-02-21T08:53:38;12.60;;;4.57;;
27003;SDS011;14546;47.590;19.022;2024-02-21T08:56:04;12.95;;;5.18;;
27003;SDS011;14546;47.590;19.022;2024-02-21T08:58:31;11.55;;;4.00;;
27003;SDS011;14546;47.590;19.022;2024-02-21T09:00:57;17.67;;;4.32;;
27003;SDS011;14546;47.590;19.022;2024-02-21T09:03:23;11.45;;;4.32;;
27003;SDS011;14546;47.590;19.022;2024-02-21T09:05:49;12.05;;;4.03;;
27003;SDS011;14546;47.590;19.022;2024-02-21T09:08:15;13.90;;;4.65;;
27003;SDS011;14546;47.590;19.022;2024-02-21T09:10:41;13.93;;;4.68;;
27003;SDS011;14546;47.590;19.022;2024-02-21T09:13:07;9.75;;;3.90;;
27003;SDS011;14546;47.590;19.022;2024-02-21T09:15:33;19.40;;;5.43;;
27003;SDS011;14546;47.590;19.022;2024-02-21T09:18:00;11.88;;;3.40;;
27003;SDS011;14546;47.590;19.022;2024-02-21T09:20:26;15.20;;;4.43;;
27003;SDS011;14546;47.590;19.022;2024-02-21T09:22:52;13.13;;;4.25;;
27003;SDS011;14546;47.590;19.022;2024-02-21T09:25:18;9.50;;;4.20;;
27003;SDS011;14546;47.590;19.022;2024-02-21T09:27:44;11.77;;;4.00;;
27003;SDS011;14546;47.590;19.022;2024-02-21T09:30:10;12.93;;;3.95;;
27003;SDS011;14546;47.590;19.022;2024-02-21T09:32:37;18.17;;;3.55;;
27003;SDS011;14546;47.590;19.022;2024-02-21T09:35:03;17.40;;;3.92;;
27003;SDS011;14546;47.590;19.022;2024-02-21T09:37:32;18.75;;;3.80;;
27003;SDS011;14546;47.590;19.022;2024-02-21T09:39:59;11.15;;;3.65;;
27003;SDS011;14546;47.590;19.022;2024-02-21T09:42:36;11.20;;;3.72;;
27003;SDS011;14546;47.590;19.022;2024-02-21T09:45:03;12.90;;;3.70;;
27003;SDS011;14546;47.590;19.022;2024-02-21T09:47:41;14.65;;;3.40;;
27003;SDS011;14546;47.590;19.022;2024-02-21T09:50:09;10.18;;;3.55;;
27003;SDS011;14546;47.590;19.022;2024-02-21T09:52:36;17.15;;;4.60;;
27003;SDS011;14546;47.590;19.022;2024-02-21T09:55:02;11.57;;;3.50;;
27003;SDS011;14546;47.590;19.022;2024-02-21T09:57:30;10.48;;;3.75;;
27003;SDS011;14546;47.590;19.022;2024-02-21T09:59:57;16.08;;;3.60;;
27003;SDS011;14546;47.590;19.022;2024-02-21T10:02:24;14.80;;;3.78;;
27003;SDS011;14546;47.590;19.022;2024-02-21T10:04:50;16.77;;;3.83;;
27003;SDS011;14546;47.590;19.022;2024-02-21T10:07:16;9.13;;;3.45;;
27003;SDS011;14546;47.590;19.022;2024-02-21T10:09:47;14.77;;;3.70;;
27003;SDS011;14546;47.590;19.022;2024-02-21T10:12:13;9.38;;;3.90;;
27003;SDS011;14546;47.590;19.022;2024-02-21T10:14:42;14.68;;;3.90;;
27003;SDS011;14546;47.590;19.022;2024-02-21T10:17:14;7.53;;;3.50;;
27003;SDS011;14546;47.590;19.022;2024-02-21T10:19:40;14.75;;;4.07;;
27003;SDS011;14546;47.590;19.022;2024-02-21T10:22:07;17.10;;;4.30;;
27003;SDS011;14546;47.590;19.022;2024-02-21T10:24:34;11.60;;;3.97;;
27003;SDS011;14546;47.590;19.022;2024-02-21T10:27:06;18.80;;;4.65;;
27003;SDS011;14546;47.590;19.022;2024-02-21T10:29:38;11.57;;;3.75;;
27003;SDS011;14546;47.590;19.022;2024-02-21T10:32:08;12.63;;;3.90;;
27003;SDS011;14546;47.590;19.022;2024-02-21T10:34:34;14.23;;;3.53;;
27003;SDS011;14546;47.590;19.022;2024-02-21T10:37:04;13.07;;;3.67;;
27003;SDS011;14546;47.590;19.022;2024-02-21T10:39:31;10.98;;;4.35;;
27003;SDS011;14546;47.590;19.022;2024-02-21T10:41:59;20.67;;;5.25;;
27003;SDS011;14546;47.590;19.022;2024-02-21T10:44:28;13.55;;;4.28;;
27003;SDS011;14546;47.590;19.022;2024-02-21T10:46:55;14.88;;;4.82;;
27003;SDS011;14546;47.590;19.022;2024-02-21T10:49:25;15.32;;;4.63;;
27003;SDS011;14546;47.590;19.022;2024-02-21T10:52:00;14.30;;;4.40;;
27003;SDS011;14546;47.590;19.022;2024-02-21T10:54:36;18.45;;;4.90;;
27003;SDS011;14546;47.590;19.022;2024-02-21T10:57:05;18.80;;;4.45;;
27003;SDS011;14546;47.590;19.022;2024-02-21T10:59:32;15.57;;;4.57;;
27003;SDS011;14546;47.590;19.022;2024-02-21T11:01:59;13.18;;;4.45;;
27003;SDS011;14546;47.590;19.022;2024-02-21T11:04:25;16.45;;;4.55;;
27003;SDS011;14546;47.590;19.022;2024-02-21T11:06:52;14.07;;;3.85;;
27003;SDS011;14546;47.590;19.022;2024-02-21T11:09:18;16.70;;;4.07;;
27003;SDS011;14546;47.590;19.022;2024-02-21T11:11:44;13.13;;;4.32;;
27003;SDS011;14546;47.590;19.022;2024-02-21T11:14:11;12.93;;;3.90;;
27003;SDS011;14546;47.590;19.022;2024-02-21T11:16:41;13.65;;;3.95;;
27003;SDS011;14546;47.590;19.022;2024-02-21T11:21:34;11.13;;;4.10;;
27003;SDS011;14546;47.590;19.022;2024-02-21T11:24:01;19.42;;;4.53;;
27003;SDS011;14546;47.590;19.022;2024-02-21T11:26:28;10.27;;;4.10;;
27003;SDS011;14546;47.590;19.022;2024-02-21T11:29:01;12.45;;;4.13;;
27003;SDS011;14546;47.590;19.022;2024-02-21T11:34:10;12.77;;;4.05;;
27003;SDS011;14546;47.590;19.022;2024-02-21T11:36:36;11.25;;;4.03;;
27003;SDS011;14546;47.590;19.022;2024-02-21T11:39:05;13.73;;;3.50;;
27003;SDS011;14546;47.590;19.022;2024-02-21T11:41:31;8.55;;;3.00;;
27003;SDS011;14546;47.590;19.022;2024-02-21T11:43:58;10.40;;;3.63;;
27003;SDS011;14546;47.590;19.022;2024-02-21T11:46:24;12.15;;;4.00;;
27003;SDS011;14546;47.590;19.022;2024-02-21T11:48:50;11.80;;;3.33;;
27003;SDS011;14546;47.590;19.022;2024-02-21T11:51:26;10.77;;;2.75;;
27003;SDS011;14546;47.590;19.022;2024-02-21T11:53:52;10.70;;;3.28;;
27003;SDS011;14546;47.590;19.022;2024-02-21T11:56:19;11.95;;;3.53;;
27003;SDS011;14546;47.590;19.022;2024-02-21T11:58:46;10.27;;;3.40;;
27003;SDS011;14546;47.590;19.022;2024-02-21T12:01:14;13.68;;;3.67;;
27003;SDS011;14546;47.590;19.022;2024-02-21T12:03:42;12.85;;;3.05;;
27003;SDS011;14546;47.590;19.022;2024-02-21T12:08:42;9.85;;;2.92;;
27003;SDS011;14546;47.590;19.022;2024-02-21T12:11:15;12.00;;;2.67;;
27003;SDS011;14546;47.590;19.022;2024-02-21T12:13:41;10.25;;;3.13;;
27003;SDS011;14546;47.590;19.022;2024-02-21T12:16:07;8.35;;;2.88;;
27003;SDS011;14546;47.590;19.022;2024-02-21T12:18:33;8.82;;;3.22;;
27003;SDS011;14546;47.590;19.022;2024-02-21T12:20:59;10.07;;;3.30;;
27003;SDS011;14546;47.590;19.022;2024-02-21T12:23:29;13.82;;;3.45;;
27003;SDS011;14546;47.590;19.022;2024-02-21T12:25:55;9.50;;;3.15;;
27003;SDS011;14546;47.590;19.022;2024-02-21T12:28:21;9.85;;;2.97;;
27003;SDS011;14546;47.590;19.022;2024-02-21T12:30:47;10.30;;;4.05;;
27003;SDS011;14546;47.590;19.022;2024-02-21T12:33:13;13.25;;;3.63;;
27003;SDS011;14546;47.590;19.022;2024-02-21T12:35:39;15.55;;;2.97;;
27003;SDS011;14546;47.590;19.022;2024-02-21T12:38:06;10.20;;;2.67;;
27003;SDS011;14546;47.590;19.022;2024-02-21T12:40:32;13.65;;;3.05;;
27003;SDS011;14546;47.590;19.022;2024-02-21T12:43:01;16.52;;;4.03;;
27003;SDS011;14546;47.590;19.022;2024-02-21T12:45:28;12.85;;;3.50;;
27003;SDS011;14546;47.590;19.022;2024-02-21T12:47:54;9.95;;;2.30;;
27003;SDS011;14546;47.590;19.022;2024-02-21T12:50:20;16.23;;;3.55;;
27003;SDS011;14546;47.590;19.022;2024-02-21T12:52:47;11.75;;;3.00;;
27003;SDS011;14546;47.590;19.022;2024-02-21T12:55:14;10.35;;;2.90;;
27003;SDS011;14546;47.590;19.022;2024-02-21T12:57:41;13.38;;;3.15;;
27003;SDS011;14546;47.590;19.022;2024-02-21T13:00:08;14.20;;;3.47;;
27003;SDS011;14546;47.590;19.022;2024-02-21T13:02:34;12.90;;;3.55;;
27003;SDS011;14546;47.590;19.022;2024-02-21T13:05:00;12.70;;;3.28;;
27003;SDS011;14546;47.590;19.022;2024-02-21T13:07:28;11.75;;;2.90;;
27003;SDS011;14546;47.590;19.022;2024-02-21T13:09:54;11.73;;;2.97;;
27003;SDS011;14546;47.590;19.022;2024-02-21T13:12:20;16.00;;;3.47;;
27003;SDS011;14546;47.590;19.022;2024-02-21T13:14:46;13.85;;;3.17;;
27003;SDS011;14546;47.590;19.022;2024-02-21T13:17:12;13.15;;;3.05;;
27003;SDS011;14546;47.590;19.022;2024-02-21T13:19:39;14.40;;;3.08;;
27003;SDS011;14546;47.590;19.022;2024-02-21T13:22:05;12.05;;;3.25;;
27003;SDS011;14546;47.590;19.022;2024-02-21T13:24:32;11.20;;;3.63;;
27003;SDS011;14546;47.590;19.022;2024-02-21T13:26:58;13.95;;;3.22;;
27003;SDS011;14546;47.590;19.022;2024-02-21T13:29:24;10.65;;;3.08;;
27003;SDS011;14546;47.590;19.022;2024-02-21T13:31:50;14.02;;;3.30;;
27003;SDS011;14546;47.590;19.022;2024-02-21T13:34:16;12.65;;;3.20;;
27003;SDS011;14546;47.590;19.022;2024-02-21T13:36:42;15.07;;;3.70;;
27003;SDS011;14546;47.590;19.022;2024-02-21T13:39:08;11.10;;;3.45;;
27003;SDS011;14546;47.590;19.022;2024-02-21T13:41:40;11.02;;;3.10;;
27003;SDS011;14546;47.590;19.022;2024-02-21T13:44:07;11.30;;;3.70;;
27003;SDS011;14546;47.590;19.022;2024-02-21T13:46:34;24.67;;;4.18;;
27003;SDS011;14546;47.590;19.022;2024-02-21T13:49:04;13.30;;;3.25;;
27003;SDS011;14546;47.590;19.022;2024-02-21T13:51:34;10.52;;;3.38;;
27003;SDS011;14546;47.590;19.022;2024-02-21T13:54:03;14.00;;;3.53;;
27003;SDS011;14546;47.590;19.022;2024-02-21T13:56:30;18.75;;;5.00;;
27003;SDS011;14546;47.590;19.022;2024-02-21T13:58:57;10.63;;;3.83;;
27003;SDS011;14546;47.590;19.022;2024-02-21T14:01:24;15.75;;;3.45;;
27003;SDS011;14546;47.590;19.022;2024-02-21T14:03:51;10.20;;;3.17;;
27003;SDS011;14546;47.590;19.022;2024-02-21T14:06:17;8.75;;;3.08;;
27003;SDS011;14546;47.590;19.022;2024-02-21T14:08:43;12.13;;;2.90;;
27003;SDS011;14546;47.590;19.022;2024-02-21T14:11:09;14.20;;;3.78;;
27003;SDS011;14546;47.590;19.022;2024-02-21T14:13:35;13.15;;;3.38;;
27003;SDS011;14546;47.590;19.022;2024-02-21T14:16:01;12.23;;;3.13;;
27003;SDS011;14546;47.590;19.022;2024-02-21T14:18:27;11.00;;;2.65;;
27003;SDS011;14546;47.590;19.022;2024-02-21T14:20:53;11.98;;;3.35;;
27003;SDS011;14546;47.590;19.022;2024-02-21T14:23:19;12.85;;;3.35;;
27003;SDS011;14546;47.590;19.022;2024-02-21T14:25:46;13.00;;;2.53;;
27003;SDS011;14546;47.590;19.022;2024-02-21T14:28:12;13.77;;;3.03;;
27003;SDS011;14546;47.590;19.022;2024-02-21T14:30:38;12.82;;;2.85;;
27003;SDS011;14546;47.590;19.022;2024-02-21T14:33:04;12.15;;;2.70;;